Alley Springs, Missouri
Current Conditions -  °F | °C
As of 11:53 AM on Monday 26 Jan 2015 (Local Time) from KUNO Reporting Station
Clear Clear  
Wind Chill: 38°   Ceiling: Unl
Heat Index: 43°   Visibility: 10mi
Dew Point: 29°   Wind: 9mph
Humidity: 58%   Direction: 270°W
Pressure: 30.03"   Gusts: NA
Location:  37.1833°N, 91.4819°W
Report Text: KUNO 261753Z AUTO 27008KT 10SM CLR 06/M02 A3003 RMK AO2 SLP173 T00611017 10061 20000 58014
Loading
Personal Weather Stations






























Interactive Weather Map New forecast layout! Learn more

10-Day Weather Forecast

Advertisements
Track Severe Weather on mobile